Time,TemperatureF,DewpointF,PressureIn,WindDirection,WindDirectionDegrees,WindSpeedMPH,WindSpeedGustMPH,Humidity,HourlyPrecipIn,Conditions,Clouds,dailyrainin,SoftwareType,DateUTC
2013-09-01 00:01:00,68.5,65.8,29.77,SSE,158,0.0,0.0,91,0.00,RA,,0.00,WeatherDisplay:10.37,2013-09-01 04:01:00,
2013-09-01 00:03:00,68.5,65.8,29.77,NE,45,0.0,0.0,91,0.00,RA,,0.00,WeatherDisplay:10.37,2013-09-01 04:03:00,
2013-09-01 00:04:00,68.5,65.8,29.77,NE,45,0.0,0.0,91,0.00,RA,,0.00,WeatherDisplay:10.37,2013-09-01 04:04:00,
2013-09-01 00:05:00,68.5,65.8,29.77,NE,45,0.0,0.0,91,0.00,RA,,0.00,WeatherDisplay:10.37,2013-09-01 04:05:00,
2013-09-01 00:10:00,68.5,65.8,29.76,NNE,22,0.0,0.0,91,0.00,,,0.00,WeatherDisplay:10.37,2013-09-01 04:10:00,
2013-09-01 00:15:00,68.4,65.6,29.76,NNE,22,0.0,0.0,91,0.00,,,0.00,WeatherDisplay:10.37,2013-09-01 04:15:00,
2013-09-01 00:20:00,68.2,65.5,29.77,NNE,22,0.0,0.0,91,0.00,,,0.00,WeatherDisplay:10.37,2013-09-01 04:20:00,
2013-09-01 00:25:00,68.2,65.5,29.76,NNE,22,0.0,0.0,91,0.00,,,0.00,WeatherDisplay:10.37,2013-09-01 04:25:00,
2013-09-01 00:30:00,68.2,65.5,29.76,NNE,22,0.0,0.0,91,0.00,,,0.00,WeatherDisplay:10.37,2013-09-01 04:30:00,
2013-09-01 00:35:00,68.2,65.8,29.76,NNE,22,0.0,0.0,92,0.00,,,0.00,WeatherDisplay:10.37,2013-09-01 04:35:00,
2013-09-01 00:40:00,68.0,65.6,29.76,NE,45,0.0,0.0,92,0.00,,,0.00,WeatherDisplay:10.37,2013-09-01 04:40:00,
2013-09-01 00:45:00,67.8,65.1,29.76,ENE,68,0.0,0.0,91,0.00,,,0.00,WeatherDisplay:10.37,2013-09-01 04:45:00,
2013-09-01 00:50:00,67.8,65.1,29.76,ENE,68,0.0,0.0,91,0.00,,,0.00,WeatherDisplay:10.37,2013-09-01 04:50:00,
2013-09-01 00:55:00,67.8,65.1,29.76,NE,45,0.0,0.0,91,0.00,,,0.00,WeatherDisplay:10.37,2013-09-01 04:55:00,
2013-09-01 01:00:00,67.6,64.9,29.76,NE,45,0.0,0.0,91,0.00,,,0.00,WeatherDisplay:10.37,2013-09-01 05:00:00,
2013-09-01 01:05:00,67.6,64.9,29.76,ESE,112,0.0,0.0,91,0.00,,,0.00,WeatherDisplay:10.37,2013-09-01 05:05:00,
2013-09-01 01:10:00,67.6,64.9,29.75,East,90,0.0,0.0,91,0.00,,,0.00,WeatherDisplay:10.37,2013-09-01 05:10:00,
2013-09-01 01:15:00,67.5,64.7,29.75,East,90,0.0,0.0,91,0.00,,,0.00,WeatherDisplay:10.37,2013-09-01 05:15:00,
2013-09-01 01:20:00,67.3,64.6,29.75,East,90,0.0,0.0,91,0.00,,,0.00,WeatherDisplay:10.37,2013-09-01 05:20:00,
2013-09-01 01:25:00,67.3,64.9,29.75,NE,45,0.0,0.0,92,0.00,,,0.00,WeatherDisplay:10.37,2013-09-01 05:25:00,
2013-09-01 01:30:00,67.1,64.7,29.75,NE,45,0.0,0.0,92,0.00,,,0.00,WeatherDisplay:10.37,2013-09-01 05:30:00,
2013-09-01 01:35:00,67.1,64.7,29.74,NE,45,0.0,0.0,92,0.00,,,0.00,WeatherDisplay:10.37,2013-09-01 05:35:00,
2013-09-01 01:40:00,67.1,64.7,29.74,NE,45,0.0,0.0,92,0.00,,,0.00,WeatherDisplay:10.37,2013-09-01 05:40:00,
2013-09-01 01:45:00,67.1,64.7,29.75,NE,45,0.0,0.0,92,0.00,,,0.00,WeatherDisplay:10.37,2013-09-01 05:45:00,
2013-09-01 01:50:00,67.1,64.7,29.74,NE,45,0.0,0.0,92,0.00,,,0.00,WeatherDisplay:10.37,2013-09-01 05:50:00,
2013-09-01 01:55:00,67.1,64.7,29.74,NE,45,0.0,0.0,92,0.00,,,0.00,WeatherDisplay:10.37,2013-09-01 05:55:00,
2013-09-01 02:00:00,67.1,64.7,29.74,NE,45,0.0,0.0,92,0.00,,,0.00,WeatherDisplay:10.37,2013-09-01 06:00:00,
2013-09-01 02:05:00,67.1,64.7,29.74,NE,45,0.0,0.0,92,0.00,,,0.00,WeatherDisplay:10.37,2013-09-01 06:05:00,
2013-09-01 02:10:00,67.1,64.7,29.74,NE,45,0.0,0.0,92,0.00,,,0.00,WeatherDisplay:10.37,2013-09-01 06:10:00,
2013-09-01 02:15:00,67.1,64.7,29.74,NE,45,0.0,0.0,92,0.00,,,0.00,WeatherDisplay:10.37,2013-09-01 06:15:00,
2013-09-01 02:20:00,67.1,64.7,29.74,NE,45,0.0,0.0,92,0.00,,,0.00,WeatherDisplay:10.37,2013-09-01 06:20:00,
2013-09-01 02:25:00,67.1,64.7,29.74,NE,45,0.0,0.0,92,0.00,,,0.00,WeatherDisplay:10.37,2013-09-01 06:25:00,
2013-09-01 02:30:00,67.1,64.7,29.74,NE,45,0.0,0.0,92,0.00,,,0.00,WeatherDisplay:10.37,2013-09-01 06:30:00,
2013-09-01 02:35:00,66.9,64.5,29.73,NE,45,0.0,0.0,92,0.00,,,0.00,WeatherDisplay:10.37,2013-09-01 06:35:00,
2013-09-01 02:40:00,66.9,64.5,29.73,NE,45,0.0,0.0,92,0.00,,,0.00,WeatherDisplay:10.37,2013-09-01 06:40:00,
2013-09-01 02:45:00,66.9,64.5,29.73,NE,45,0.0,0.0,92,0.00,,,0.00,WeatherDisplay:10.37,2013-09-01 06:45:00,
2013-09-01 02:50:00,66.9,64.5,29.73,SE,135,0.0,0.0,92,0.00,,,0.00,WeatherDisplay:10.37,2013-09-01 06:50:00,
2013-09-01 02:55:00,66.9,64.5,29.73,SE,135,0.0,0.0,92,0.00,,,0.00,WeatherDisplay:10.37,2013-09-01 06:55:00,
2013-09-01 03:00:00,66.9,64.5,29.73,SE,135,0.0,0.0,92,0.00,,,0.00,WeatherDisplay:10.37,2013-09-01 07:00:00,
2013-09-01 03:05:00,66.7,64.3,29.73,SE,135,0.0,0.0,92,0.00,,,0.00,WeatherDisplay:10.37,2013-09-01 07:05:00,
2013-09-01 03:10:00,66.7,64.3,29.73,SE,135,0.0,0.0,92,0.00,,,0.00,WeatherDisplay:10.37,2013-09-01 07:10:00,
2013-09-01 03:15:00,66.7,64.3,29.73,SE,135,0.0,0.0,92,0.00,,,0.00,WeatherDisplay:10.37,2013-09-01 07:15:00,
2013-09-01 03:20:00,66.7,64.3,29.74,SE,135,0.0,0.0,92,0.00,,,0.00,WeatherDisplay:10.37,2013-09-01 07:20:00,
2013-09-01 03:25:00,66.7,64.3,29.74,SE,135,0.0,0.0,92,0.00,,,0.00,WeatherDisplay:10.37,2013-09-01 07:25:00,
2013-09-01 03:30:00,66.7,64.3,29.74,SE,135,0.0,0.0,92,0.00,,,0.00,WeatherDisplay:10.37,2013-09-01 07:30:00,
2013-09-01 03:35:00,66.7,64.3,29.74,SE,135,0.0,0.0,92,0.00,,,0.00,WeatherDisplay:10.37,2013-09-01 07:35:00,
2013-09-01 03:40:00,66.6,64.2,29.74,SE,135,0.0,0.0,92,0.00,,,0.00,WeatherDisplay:10.37,2013-09-01 07:40:00,
2013-09-01 03:45:00,66.7,64.3,29.73,SE,135,0.0,0.0,92,0.00,,,0.00,WeatherDisplay:10.37,2013-09-01 07:45:00,
2013-09-01 03:50:00,66.6,64.5,29.74,SE,135,0.0,0.0,93,0.00,,,0.00,WeatherDisplay:10.37,2013-09-01 07:50:00,
2013-09-01 03:55:00,66.6,64.5,29.74,SE,135,0.0,0.0,93,0.00,,,0.00,WeatherDisplay:10.37,2013-09-01 07:55:00,
2013-09-01 04:00:00,66.6,64.5,29.73,SE,135,0.0,0.0,93,0.00,,,0.00,WeatherDisplay:10.37,2013-09-01 08:00:00,
2013-09-01 04:05:00,66.4,64.3,29.73,SE,135,0.0,0.0,93,0.00,,,0.00,WeatherDisplay:10.37,2013-09-01 08:05:00,
2013-09-01 04:10:00,66.4,64.0,29.73,SE,135,0.0,0.0,92,0.00,,,0.00,WeatherDisplay:10.37,2013-09-01 08:10:00,
2013-09-01 04:15:00,66.4,64.0,29.74,SE,135,0.0,0.0,92,0.00,,,0.00,WeatherDisplay:10.37,2013-09-01 08:15:00,
2013-09-01 04:20:00,66.4,64.3,29.75,SE,135,0.0,0.0,93,0.00,,,0.00,WeatherDisplay:10.37,2013-09-01 08:20:00,
2013-09-01 04:25:00,66.4,64.3,29.74,SE,135,0.0,0.0,93,0.00,,,0.00,WeatherDisplay:10.37,2013-09-01 08:25:00,
2013-09-01 04:30:00,66.2,64.1,29.74,SE,135,0.0,0.0,93,0.00,,,0.00,WeatherDisplay:10.37,2013-09-01 08:30:00,
2013-09-01 04:35:00,66.2,64.1,29.75,SE,135,0.0,0.0,93,0.00,,,0.00,WeatherDisplay:10.37,2013-09-01 08:35:00,
2013-09-01 04:40:00,66.2,64.1,29.75,SE,135,0.0,0.0,93,0.00,,,0.00,WeatherDisplay:10.37,2013-09-01 08:40:00,
2013-09-01 04:45:00,66.2,64.1,29.75,SE,135,0.0,0.0,93,0.00,,,0.00,WeatherDisplay:10.37,2013-09-01 08:45:00,
2013-09-01 04:50:00,66.0,63.9,29.74,SE,135,0.0,0.0,93,0.00,,,0.00,WeatherDisplay:10.37,2013-09-01 08:50:00,
2013-09-01 04:55:00,66.0,63.9,29.74,SE,135,0.0,0.0,93,0.00,,,0.00,WeatherDisplay:10.37,2013-09-01 08:55:00,
2013-09-01 05:00:00,66.0,63.9,29.74,SE,135,0.0,0.0,93,0.00,,,0.00,WeatherDisplay:10.37,2013-09-01 09:00:00,
2013-09-01 05:05:00,66.0,63.9,29.74,SE,135,0.0,0.0,93,0.00,,,0.00,WeatherDisplay:10.37,2013-09-01 09:05:00,
2013-09-01 05:10:00,66.2,64.1,29.74,SE,135,0.0,0.0,93,0.00,,,0.00,WeatherDisplay:10.37,2013-09-01 09:10:00,
2013-09-01 05:15:00,66.0,63.9,29.74,SE,135,0.0,0.0,93,0.00,,,0.00,WeatherDisplay:10.37,2013-09-01 09:15:00,
2013-09-01 05:20:00,66.0,63.9,29.74,SE,135,0.0,0.0,93,0.00,,,0.00,WeatherDisplay:10.37,2013-09-01 09:20:00,
2013-09-01 05:25:00,66.2,64.1,29.74,NE,45,0.0,0.0,93,0.00,,,0.00,WeatherDisplay:10.37,2013-09-01 09:25:00,
2013-09-01 05:30:00,66.2,64.1,29.74,SE,135,0.0,0.0,93,0.00,,,0.00,WeatherDisplay:10.37,2013-09-01 09:30:00,
2013-09-01 05:35:00,66.0,63.9,29.74,SSE,158,0.0,0.0,93,0.00,,,0.00,WeatherDisplay:10.37,2013-09-01 09:35:00,
2013-09-01 05:40:00,66.0,63.9,29.74,SSE,158,0.0,0.0,93,0.00,,,0.00,WeatherDisplay:10.37,2013-09-01 09:40:00,
2013-09-01 05:45:00,65.8,63.8,29.74,SSE,158,0.0,0.0,93,0.00,,,0.00,WeatherDisplay:10.37,2013-09-01 09:45:00,
2013-09-01 05:50:00,65.8,63.8,29.74,SSE,158,0.0,0.0,93,0.00,,,0.00,WeatherDisplay:10.37,2013-09-01 09:50:00,
2013-09-01 05:55:00,65.8,63.8,29.74,SSE,158,0.0,0.0,93,0.00,,,0.00,WeatherDisplay:10.37,2013-09-01 09:55:00,
2013-09-01 06:00:00,66.0,63.9,29.74,ENE,68,0.0,0.0,93,0.00,,,0.00,WeatherDisplay:10.37,2013-09-01 10:00:00,
2013-09-01 06:05:00,66.0,63.9,29.74,ENE,68,0.0,0.0,93,0.00,,,0.00,WeatherDisplay:10.37,2013-09-01 10:05:00,
2013-09-01 06:10:00,66.0,63.9,29.73,NE,45,0.0,0.0,93,0.00,,,0.00,WeatherDisplay:10.37,2013-09-01 10:10:00,
2013-09-01 06:15:00,66.0,63.9,29.73,NE,45,0.0,0.0,93,0.00,,,0.00,WeatherDisplay:10.37,2013-09-01 10:15:00,
2013-09-01 06:20:00,66.0,63.9,29.73,NE,45,0.0,0.0,93,0.00,,,0.00,WeatherDisplay:10.37,2013-09-01 10:20:00,
2013-09-01 06:25:00,66.0,63.9,29.73,NE,45,0.0,0.0,93,0.00,,,0.00,WeatherDisplay:10.37,2013-09-01 10:25:00,
2013-09-01 06:30:00,66.0,63.9,29.73,NE,45,0.0,0.0,93,0.00,,,0.00,WeatherDisplay:10.37,2013-09-01 10:30:00,
2013-09-01 06:35:00,66.0,63.9,29.73,NE,45,0.0,0.0,93,0.00,,,0.00,WeatherDisplay:10.37,2013-09-01 10:35:00,
2013-09-01 06:40:00,66.0,63.9,29.73,NE,45,0.0,0.0,93,0.00,,,0.00,WeatherDisplay:10.37,2013-09-01 10:40:00,
2013-09-01 06:45:00,66.0,63.9,29.73,NE,45,0.0,0.0,93,0.00,,,0.00,WeatherDisplay:10.37,2013-09-01 10:45:00,
2013-09-01 06:50:00,66.0,63.9,29.73,NE,45,0.0,0.0,93,0.00,,,0.00,WeatherDisplay:10.37,2013-09-01 10:50:00,
2013-09-01 06:55:00,66.0,63.9,29.73,NE,45,0.0,0.0,93,0.00,,,0.00,WeatherDisplay:10.37,2013-09-01 10:55:00,
2013-09-01 07:00:00,65.8,63.8,29.73,NE,45,0.0,0.0,93,0.00,,,0.00,WeatherDisplay:10.37,2013-09-01 11:00:00,
2013-09-01 07:05:00,65.8,63.8,29.73,NE,45,0.0,0.0,93,0.00,,,0.00,WeatherDisplay:10.37,2013-09-01 11:05:00,
2013-09-01 07:10:00,65.8,63.8,29.73,NE,45,0.0,0.0,93,0.00,,,0.00,WeatherDisplay:10.37,2013-09-01 11:10:00,
2013-09-01 07:15:00,66.0,63.9,29.73,NE,45,0.0,0.0,93,0.00,,,0.00,WeatherDisplay:10.37,2013-09-01 11:15:00,
2013-09-01 07:20:00,66.0,63.9,29.73,NE,45,0.0,0.0,93,0.00,,,0.00,WeatherDisplay:10.37,2013-09-01 11:20:00,
2013-09-01 07:25:00,66.0,63.9,29.73,NE,45,0.0,0.0,93,0.00,,,0.00,WeatherDisplay:10.37,2013-09-01 11:25:00,
2013-09-01 07:30:00,66.4,64.3,29.73,NE,45,0.0,0.0,93,0.00,,,0.00,WeatherDisplay:10.37,2013-09-01 11:30:00,
2013-09-01 07:35:00,66.4,64.3,29.74,ENE,68,0.0,0.0,93,0.00,,,0.00,WeatherDisplay:10.37,2013-09-01 11:35:00,
2013-09-01 07:40:00,66.6,64.5,29.74,ENE,68,0.0,0.0,93,0.00,,,0.00,WeatherDisplay:10.37,2013-09-01 11:40:00,
2013-09-01 07:45:00,66.6,64.5,29.74,ENE,68,0.0,0.0,93,0.00,,,0.00,WeatherDisplay:10.37,2013-09-01 11:45:00,
2013-09-01 07:50:00,66.6,64.5,29.75,ESE,112,0.0,0.0,93,0.00,,,0.00,WeatherDisplay:10.37,2013-09-01 11:50:00,
2013-09-01 07:55:00,66.6,64.5,29.75,ESE,112,0.0,0.0,93,0.00,,,0.00,WeatherDisplay:10.37,2013-09-01 11:55:00,
2013-09-01 08:00:00,66.4,64.3,29.75,ESE,112,0.0,0.0,93,0.00,,,0.00,WeatherDisplay:10.37,2013-09-01 12:00:00,
2013-09-01 08:05:00,66.4,64.3,29.75,ESE,112,0.0,0.0,93,0.00,,,0.00,WeatherDisplay:10.37,2013-09-01 12:05:00,
2013-09-01 08:10:00,66.4,64.3,29.75,ESE,112,0.0,0.0,93,0.00,,,0.00,WeatherDisplay:10.37,2013-09-01 12:10:00,
2013-09-01 08:15:00,66.4,64.3,29.75,ESE,112,0.0,0.0,93,0.00,,,0.00,WeatherDisplay:10.37,2013-09-01 12:15:00,
2013-09-01 08:20:00,66.4,64.3,29.75,ESE,112,0.0,0.0,93,0.00,,,0.00,WeatherDisplay:10.37,2013-09-01 12:20:00,
2013-09-01 08:25:00,66.6,64.5,29.75,ESE,112,0.0,0.0,93,0.00,,,0.00,WeatherDisplay:10.37,2013-09-01 12:25:00,
2013-09-01 08:30:00,66.6,64.5,29.75,ESE,112,0.0,0.0,93,0.00,,,0.00,WeatherDisplay:10.37,2013-09-01 12:30:00,
2013-09-01 08:35:00,66.6,64.5,29.75,ESE,112,0.0,0.0,93,0.00,,,0.00,WeatherDisplay:10.37,2013-09-01 12:35:00,
2013-09-01 08:40:00,66.7,65.0,29.75,ESE,112,0.0,0.0,94,0.00,,,0.00,WeatherDisplay:10.37,2013-09-01 12:40:00,
2013-09-01 08:45:00,66.9,65.1,29.75,ESE,112,0.0,0.0,94,0.00,,,0.00,WeatherDisplay:10.37,2013-09-01 12:45:00,
2013-09-01 08:50:00,66.9,65.1,29.75,ESE,112,0.0,0.0,94,0.00,,,0.00,WeatherDisplay:10.37,2013-09-01 12:50:00,
2013-09-01 08:55:00,66.9,65.1,29.75,ESE,112,0.0,0.0,94,0.00,,,0.00,WeatherDisplay:10.37,2013-09-01 12:55:00,
2013-09-01 09:00:00,67.1,65.3,29.75,ESE,112,0.0,0.0,94,0.00,,,0.00,WeatherDisplay:10.37,2013-09-01 13:00:00,
2013-09-01 09:05:00,67.3,65.5,29.75,SE,135,0.0,0.0,94,0.00,,,0.00,WeatherDisplay:10.37,2013-09-01 13:05:00,
2013-09-01 09:10:00,67.6,65.9,29.75,SE,135,0.0,0.0,94,0.00,,,0.00,WeatherDisplay:10.37,2013-09-01 13:10:00,
2013-09-01 09:15:00,67.8,66.0,29.75,SSE,158,0.0,0.0,94,0.00,,,0.00,WeatherDisplay:10.37,2013-09-01 13:15:00,
2013-09-01 09:20:00,68.2,66.4,29.76,South,180,0.0,0.0,94,0.00,,,0.00,WeatherDisplay:10.37,2013-09-01 13:20:00,
2013-09-01 09:25:00,68.5,66.7,29.76,South,180,0.0,0.0,94,0.00,,,0.00,WeatherDisplay:10.37,2013-09-01 13:25:00,
2013-09-01 09:30:00,68.7,66.9,29.76,South,180,0.0,0.0,94,0.00,,,0.00,WeatherDisplay:10.37,2013-09-01 13:30:00,
2013-09-01 09:35:00,69.1,67.3,29.76,SSE,158,0.0,0.0,94,0.00,,,0.00,WeatherDisplay:10.37,2013-09-01 13:35:00,
2013-09-01 09:40:00,69.4,67.6,29.76,South,180,0.0,0.0,94,0.00,,,0.00,WeatherDisplay:10.37,2013-09-01 13:40:00,
2013-09-01 09:45:00,69.6,67.5,29.76,SSE,158,0.0,0.0,93,0.00,,,0.00,WeatherDisplay:10.37,2013-09-01 13:45:00,
2013-09-01 09:50:00,70.0,67.9,29.76,South,180,0.0,0.0,93,0.00,,,0.00,WeatherDisplay:10.37,2013-09-01 13:50:00,
2013-09-01 09:55:00,70.3,68.2,29.75,South,180,0.0,0.0,93,0.00,,,0.00,WeatherDisplay:10.37,2013-09-01 13:55:00,
2013-09-01 10:00:00,70.5,68.4,29.76,SSE,158,0.0,0.0,93,0.00,,,0.00,WeatherDisplay:10.37,2013-09-01 14:00:00,
2013-09-01 10:05:00,70.7,68.3,29.75,South,180,0.0,0.0,92,0.00,,,0.00,WeatherDisplay:10.37,2013-09-01 14:05:00,
2013-09-01 10:10:00,70.9,68.4,29.75,South,180,0.0,0.0,92,0.00,,,0.00,WeatherDisplay:10.37,2013-09-01 14:10:00,
2013-09-01 10:15:00,71.2,68.8,29.75,SW,225,0.0,0.0,92,0.00,,,0.00,WeatherDisplay:10.37,2013-09-01 14:15:00,
2013-09-01 10:20:00,71.4,69.0,29.76,SSE,158,0.0,0.0,92,0.00,,,0.00,WeatherDisplay:10.37,2013-09-01 14:20:00,
2013-09-01 10:25:00,71.8,69.3,29.75,SSE,158,0.0,0.0,92,0.00,,,0.00,WeatherDisplay:10.37,2013-09-01 14:25:00,
2013-09-01 10:30:00,71.8,69.0,29.76,SW,225,0.0,0.0,91,0.00,,,0.00,WeatherDisplay:10.37,2013-09-01 14:30:00,
2013-09-01 10:35:00,72.3,69.5,29.76,SSW,202,0.0,0.0,91,0.00,,,0.00,WeatherDisplay:10.37,2013-09-01 14:35:00,
2013-09-01 10:40:00,72.5,69.7,29.75,SSE,158,0.0,0.0,91,0.00,,,0.00,WeatherDisplay:10.37,2013-09-01 14:40:00,
2013-09-01 10:45:00,73.0,70.3,29.75,South,180,0.0,0.0,91,0.00,,,0.00,WeatherDisplay:10.37,2013-09-01 14:45:00,
2013-09-01 10:50:00,73.2,70.4,29.76,South,180,0.0,0.0,91,0.00,,,0.00,WeatherDisplay:10.37,2013-09-01 14:50:00,
2013-09-01 10:55:00,73.8,70.6,29.76,South,180,0.0,0.0,90,0.00,,,0.00,WeatherDisplay:10.37,2013-09-01 14:55:00,
2013-09-01 11:00:00,74.1,70.7,29.76,South,180,0.0,0.0,89,0.00,,,0.00,WeatherDisplay:10.37,2013-09-01 15:00:00,
2013-09-01 11:05:00,74.5,71.0,29.76,SSE,158,0.0,0.0,89,0.00,,,0.00,WeatherDisplay:10.37,2013-09-01 15:05:00,
2013-09-01 11:10:00,75.0,71.2,29.76,SE,135,0.0,0.0,88,0.00,,,0.00,WeatherDisplay:10.37,2013-09-01 15:10:00,
2013-09-01 11:15:00,75.6,71.8,29.76,SW,225,0.0,0.0,88,0.00,,,0.00,WeatherDisplay:10.37,2013-09-01 15:15:00,
2013-09-01 11:20:00,75.9,72.1,29.75,SSW,202,0.0,0.0,88,0.00,,,0.00,WeatherDisplay:10.37,2013-09-01 15:20:00,
2013-09-01 11:25:00,76.3,72.1,29.75,South,180,0.0,0.0,87,0.00,,,0.00,WeatherDisplay:10.37,2013-09-01 15:25:00,
2013-09-01 11:30:00,76.6,72.5,29.75,SSE,158,0.0,0.0,87,0.00,,,0.00,WeatherDisplay:10.37,2013-09-01 15:30:00,
2013-09-01 11:35:00,77.2,73.0,29.75,SE,135,0.0,0.0,87,0.00,,,0.00,WeatherDisplay:10.37,2013-09-01 15:35:00,
2013-09-01 11:40:00,77.9,73.4,29.75,South,180,0.0,0.0,86,0.00,,,0.00,WeatherDisplay:10.37,2013-09-01 15:40:00,
2013-09-01 11:45:00,78.6,73.7,29.75,SW,225,0.0,0.0,85,0.00,,,0.00,WeatherDisplay:10.37,2013-09-01 15:45:00,
2013-09-01 11:50:00,79.3,74.1,29.75,SSW,202,0.0,0.0,84,0.00,,,0.00,WeatherDisplay:10.37,2013-09-01 15:50:00,
2013-09-01 11:55:00,79.3,73.4,29.74,SSE,158,0.0,0.0,82,0.00,,,0.00,WeatherDisplay:10.37,2013-09-01 15:55:00,
2013-09-01 12:00:00,79.3,73.4,29.75,SSW,202,0.0,0.0,82,0.00,,,0.00,WeatherDisplay:10.37,2013-09-01 16:00:00,
2013-09-01 12:05:00,79.7,72.6,29.75,South,180,0.0,0.0,79,0.00,,,0.00,WeatherDisplay:10.37,2013-09-01 16:05:00,
2013-09-01 12:10:00,80.2,72.8,29.75,SSE,158,0.0,0.0,78,0.00,,,0.00,WeatherDisplay:10.37,2013-09-01 16:10:00,
2013-09-01 12:15:00,81.0,73.5,29.75,WSW,248,0.0,0.0,78,0.00,,,0.00,WeatherDisplay:10.37,2013-09-01 16:15:00,
2013-09-01 12:20:00,82.0,74.1,29.75,South,180,0.0,0.0,77,0.00,,,0.00,WeatherDisplay:10.37,2013-09-01 16:20:00,
2013-09-01 12:25:00,82.6,73.8,29.75,SSE,158,0.0,0.0,75,0.00,,,0.00,WeatherDisplay:10.37,2013-09-01 16:25:00,
2013-09-01 12:30:00,83.3,73.7,29.74,SW,225,0.0,0.0,73,0.00,,,0.00,WeatherDisplay:10.37,2013-09-01 16:30:00,
2013-09-01 12:35:00,84.0,74.8,29.74,SSW,202,0.0,0.0,74,0.00,,,0.00,WeatherDisplay:10.37,2013-09-01 16:35:00,
2013-09-01 12:40:00,84.6,74.9,29.74,South,180,0.0,0.0,73,0.00,,,0.00,WeatherDisplay:10.37,2013-09-01 16:40:00,
2013-09-01 12:45:00,84.9,74.5,29.74,SW,225,0.0,0.0,71,0.00,,,0.00,WeatherDisplay:10.37,2013-09-01 16:45:00,
2013-09-01 12:50:00,85.3,74.4,29.73,West,270,0.0,0.0,70,0.00,,,0.00,WeatherDisplay:10.37,2013-09-01 16:50:00,
2013-09-01 12:55:00,85.6,73.9,29.73,NW,315,0.0,0.0,68,0.00,,,0.00,WeatherDisplay:10.37,2013-09-01 16:55:00,
2013-09-01 13:00:00,85.6,73.9,29.73,South,180,0.0,0.0,68,0.00,,,0.00,WeatherDisplay:10.37,2013-09-01 17:00:00,
2013-09-01 13:05:00,85.8,74.0,29.73,SSE,158,0.0,0.0,68,0.00,,,0.00,WeatherDisplay:10.37,2013-09-01 17:05:00,
2013-09-01 13:10:00,85.8,74.5,29.73,South,180,0.0,0.0,69,0.00,,,0.00,WeatherDisplay:10.37,2013-09-01 17:10:00,
2013-09-01 13:15:00,85.8,74.0,29.73,South,180,0.0,0.0,68,0.00,,,0.00,WeatherDisplay:10.37,2013-09-01 17:15:00,
2013-09-01 13:20:00,85.8,74.0,29.72,SSE,158,0.0,0.0,68,0.00,,,0.00,WeatherDisplay:10.37,2013-09-01 17:20:00,
2013-09-01 13:25:00,84.9,72.7,29.72,SSE,158,0.0,0.0,67,0.00,,,0.00,WeatherDisplay:10.37,2013-09-01 17:25:00,
2013-09-01 13:30:00,84.0,72.3,29.72,South,180,0.0,0.0,68,0.00,,,0.00,WeatherDisplay:10.37,2013-09-01 17:30:00,
2013-09-01 13:35:00,83.5,73.1,29.72,South,180,0.0,0.0,71,0.00,,,0.00,WeatherDisplay:10.37,2013-09-01 17:35:00,
2013-09-01 13:40:00,83.7,73.3,29.72,WSW,248,0.0,0.0,71,0.00,,,0.00,WeatherDisplay:10.37,2013-09-01 17:40:00,
2013-09-01 13:45:00,84.0,73.2,29.71,SW,225,0.0,0.0,70,0.00,,,0.00,WeatherDisplay:10.37,2013-09-01 17:45:00,
2013-09-01 13:50:00,84.7,73.9,29.72,WSW,248,0.0,0.0,70,0.00,,,0.00,WeatherDisplay:10.37,2013-09-01 17:50:00,
2013-09-01 13:55:00,85.5,74.6,29.71,WSW,249,0.0,0.0,70,0.00,,,0.00,WeatherDisplay:10.37,2013-09-01 17:55:00,
2013-09-01 14:00:00,86.2,74.8,29.71,South,180,0.0,0.0,69,0.00,,,0.00,WeatherDisplay:10.37,2013-09-01 18:00:00,
2013-09-01 14:05:00,86.5,74.7,29.71,SW,225,0.0,0.0,68,0.00,,,0.00,WeatherDisplay:10.37,2013-09-01 18:05:00,
2013-09-01 14:10:00,86.9,74.6,29.71,South,180,0.0,0.0,67,0.00,,,0.00,WeatherDisplay:10.37,2013-09-01 18:10:00,
2013-09-01 14:15:00,87.4,74.7,29.71,SSW,202,0.0,0.0,66,0.00,,,0.00,WeatherDisplay:10.37,2013-09-01 18:15:00,
2013-09-01 14:20:00,86.7,74.0,29.71,SSW,202,0.0,0.0,66,0.00,,,0.00,WeatherDisplay:10.37,2013-09-01 18:20:00,
2013-09-01 14:25:00,86.2,73.5,29.71,SSW,202,0.0,0.0,66,0.00,,,0.00,WeatherDisplay:10.37,2013-09-01 18:25:00,
2013-09-01 14:30:00,86.0,73.8,29.71,SSE,158,0.0,0.0,67,0.00,,,0.00,WeatherDisplay:10.37,2013-09-01 18:30:00,
2013-09-01 14:35:00,86.2,73.9,29.70,South,180,0.0,0.0,67,0.00,,,0.00,WeatherDisplay:10.37,2013-09-01 18:35:00,
2013-09-01 14:40:00,86.2,73.9,29.70,South,180,0.0,0.0,67,0.00,,,0.00,WeatherDisplay:10.37,2013-09-01 18:40:00,
2013-09-01 14:45:00,85.5,73.2,29.70,SW,225,0.0,0.0,67,0.00,,,0.00,WeatherDisplay:10.37,2013-09-01 18:45:00,
2013-09-01 14:50:00,85.3,73.5,29.70,South,180,0.0,0.0,68,0.00,,,0.00,WeatherDisplay:10.37,2013-09-01 18:50:00,
2013-09-01 14:55:00,85.6,73.9,29.70,SSE,158,0.0,0.0,68,0.00,,,0.00,WeatherDisplay:10.37,2013-09-01 18:55:00,
2013-09-01 15:00:00,85.8,73.6,29.70,SW,225,0.0,0.0,67,0.00,,,0.00,WeatherDisplay:10.37,2013-09-01 19:00:00,
2013-09-01 15:05:00,85.1,72.9,29.70,SW,225,0.0,0.0,67,0.00,,,0.00,WeatherDisplay:10.37,2013-09-01 19:05:00,
2013-09-01 15:10:00,84.2,72.9,29.69,SW,225,0.0,0.0,69,0.00,,,0.00,WeatherDisplay:10.37,2013-09-01 19:10:00,
2013-09-01 15:15:00,83.5,72.2,29.69,SW,225,0.0,0.0,69,0.00,,,0.00,WeatherDisplay:10.37,2013-09-01 19:15:00,
2013-09-01 15:20:00,82.9,72.1,29.69,SW,225,0.0,0.0,70,0.00,,,0.00,WeatherDisplay:10.37,2013-09-01 19:20:00,
2013-09-01 15:25:00,82.6,72.6,29.69,SW,225,0.0,0.0,72,0.00,,,0.00,WeatherDisplay:10.37,2013-09-01 19:25:00,
2013-09-01 15:30:00,82.4,72.9,29.69,ESE,112,0.0,0.0,73,0.00,,,0.00,WeatherDisplay:10.37,2013-09-01 19:30:00,
2013-09-01 15:36:00,82.4,72.9,29.68,South,180,0.0,0.0,73,0.00,,,0.00,WeatherDisplay:10.37,2013-09-01 19:36:00,
2013-09-01 15:41:00,82.2,73.1,29.68,SW,225,0.0,0.0,74,0.00,,,0.00,WeatherDisplay:10.37,2013-09-01 19:41:00,
2013-09-01 15:46:00,82.2,73.1,29.68,SW,225,0.0,0.0,74,0.00,,,0.00,WeatherDisplay:10.37,2013-09-01 19:46:00,
2013-09-01 15:51:00,82.0,72.9,29.67,South,180,0.0,0.0,74,0.00,,,0.00,WeatherDisplay:10.37,2013-09-01 19:51:00,
2013-09-01 15:56:00,81.7,72.6,29.68,SSW,202,0.0,0.0,74,0.00,,,0.00,WeatherDisplay:10.37,2013-09-01 19:56:00,
2013-09-01 16:01:00,81.7,72.6,29.68,SSE,158,0.0,0.0,74,0.00,,,0.00,WeatherDisplay:10.37,2013-09-01 20:01:00,
2013-09-01 16:06:00,82.2,72.7,29.68,SW,225,0.0,0.0,73,0.00,,,0.00,WeatherDisplay:10.37,2013-09-01 20:06:00,
2013-09-01 16:11:00,82.6,73.4,29.68,WSW,248,0.0,0.0,74,0.00,,,0.00,WeatherDisplay:10.37,2013-09-01 20:11:00,
2013-09-01 16:16:00,82.9,73.8,29.68,West,270,0.0,0.0,74,0.00,,,0.00,WeatherDisplay:10.37,2013-09-01 20:16:00,
2013-09-01 16:21:00,82.9,73.4,29.68,SW,225,0.0,0.0,73,0.00,,,0.00,WeatherDisplay:10.37,2013-09-01 20:21:00,
2013-09-01 16:26:00,82.2,72.7,29.68,South,180,0.0,0.0,73,0.00,,,0.00,WeatherDisplay:10.37,2013-09-01 20:26:00,
2013-09-01 16:31:00,81.7,72.6,29.68,SSW,202,0.0,0.0,74,0.00,,,0.00,WeatherDisplay:10.37,2013-09-01 20:31:00,
2013-09-01 16:36:00,81.1,72.5,29.68,West,270,0.0,0.0,75,0.00,,,0.00,WeatherDisplay:10.37,2013-09-01 20:36:00,
2013-09-01 16:41:00,81.1,72.9,29.68,SSW,202,0.0,0.0,76,0.00,,,0.00,WeatherDisplay:10.37,2013-09-01 20:41:00,
2013-09-01 16:46:00,80.8,72.5,29.67,WNW,292,0.0,0.0,76,0.00,,,0.00,WeatherDisplay:10.37,2013-09-01 20:46:00,
2013-09-01 16:51:00,80.2,72.0,29.67,SW,225,0.0,0.0,76,0.00,,,0.00,WeatherDisplay:10.37,2013-09-01 20:51:00,
2013-09-01 16:56:00,79.9,71.6,29.68,SSW,202,0.0,0.0,76,0.00,,,0.00,WeatherDisplay:10.37,2013-09-01 20:56:00,
2013-09-01 17:01:00,79.3,71.5,29.67,SW,225,0.0,0.0,77,0.00,,,0.00,WeatherDisplay:10.37,2013-09-01 21:01:00,
2013-09-01 17:06:00,79.0,71.2,29.68,SE,135,0.0,0.0,77,0.00,,,0.00,WeatherDisplay:10.37,2013-09-01 21:06:00,
2013-09-01 17:11:00,78.6,71.2,29.68,South,180,0.0,0.0,78,0.00,,,0.00,WeatherDisplay:10.37,2013-09-01 21:11:00,
2013-09-01 17:16:00,78.4,71.0,29.68,South,180,0.0,0.0,78,0.00,,,0.00,WeatherDisplay:10.37,2013-09-01 21:16:00,
2013-09-01 17:21:00,78.1,70.7,29.69,South,180,0.0,0.0,78,0.00,,,0.00,WeatherDisplay:10.37,2013-09-01 21:21:00,
2013-09-01 17:26:00,77.9,70.1,29.70,South,180,0.0,0.0,77,0.00,,,0.00,WeatherDisplay:10.37,2013-09-01 21:26:00,
2013-09-01 17:31:00,78.1,70.7,29.71,SSW,202,0.0,0.0,78,0.00,,,0.00,WeatherDisplay:10.37,2013-09-01 21:31:00,
2013-09-01 17:36:00,78.1,70.7,29.70,SW,225,0.0,0.0,78,0.00,,,0.00,WeatherDisplay:10.37,2013-09-01 21:36:00,
2013-09-01 17:41:00,78.1,70.7,29.70,SW,225,0.0,0.0,78,0.00,,,0.00,WeatherDisplay:10.37,2013-09-01 21:41:00,
2013-09-01 17:46:00,77.7,70.3,29.70,SW,225,0.0,0.0,78,0.00,,,0.00,WeatherDisplay:10.37,2013-09-01 21:46:00,
2013-09-01 17:51:00,77.5,69.8,29.70,SW,225,0.0,0.0,77,0.00,,,0.00,WeatherDisplay:10.37,2013-09-01 21:51:00,
2013-09-01 17:56:00,77.4,69.6,29.70,WSW,248,0.0,0.0,77,0.00,,,0.00,WeatherDisplay:10.37,2013-09-01 21:56:00,
2013-09-01 18:01:00,77.0,69.2,29.70,WSW,248,0.0,0.0,77,0.00,,,0.00,WeatherDisplay:10.37,2013-09-01 22:01:00,
2013-09-01 18:06:00,76.6,68.9,29.70,NW,315,0.0,0.0,77,0.00,,,0.00,WeatherDisplay:10.37,2013-09-01 22:06:00,
2013-09-01 18:11:00,76.5,68.7,29.70,NW,315,0.0,0.0,77,0.00,,,0.00,WeatherDisplay:10.37,2013-09-01 22:11:00,
2013-09-01 18:16:00,75.9,68.2,29.70,NW,315,0.0,0.0,77,0.00,,,0.00,WeatherDisplay:10.37,2013-09-01 22:16:00,
2013-09-01 18:21:00,75.7,68.4,29.70,NW,315,0.0,0.0,78,0.00,,,0.00,WeatherDisplay:10.37,2013-09-01 22:21:00,
2013-09-01 18:26:00,75.4,68.0,29.70,NW,315,0.0,0.0,78,0.00,,,0.00,WeatherDisplay:10.37,2013-09-01 22:26:00,
2013-09-01 18:31:00,75.0,68.1,29.70,NW,315,0.0,0.0,79,0.00,,,0.00,WeatherDisplay:10.37,2013-09-01 22:31:00,
2013-09-01 18:36:00,75.0,68.1,29.70,NW,315,0.0,0.0,79,0.00,,,0.00,WeatherDisplay:10.37,2013-09-01 22:36:00,
2013-09-01 18:41:00,75.0,68.4,29.71,NW,315,0.0,0.0,80,0.00,,,0.00,WeatherDisplay:10.37,2013-09-01 22:41:00,
2013-09-01 18:46:00,75.0,68.4,29.71,NW,315,0.0,0.0,80,0.00,,,0.00,WeatherDisplay:10.37,2013-09-01 22:46:00,
2013-09-01 18:51:00,75.0,68.4,29.70,NW,315,0.0,0.0,80,0.00,,,0.00,WeatherDisplay:10.37,2013-09-01 22:51:00,
2013-09-01 18:56:00,75.0,68.4,29.70,NW,315,0.0,0.0,80,0.00,,,0.00,WeatherDisplay:10.37,2013-09-01 22:56:00,
2013-09-01 19:01:00,75.0,68.4,29.71,NW,315,0.0,0.0,80,0.00,,,0.00,WeatherDisplay:10.37,2013-09-01 23:01:00,
2013-09-01 19:06:00,74.8,68.6,29.70,NW,315,0.0,0.0,81,0.00,,,0.00,WeatherDisplay:10.37,2013-09-01 23:06:00,
2013-09-01 19:11:00,74.7,68.4,29.71,NW,315,0.0,0.0,81,0.00,,,0.00,WeatherDisplay:10.37,2013-09-01 23:11:00,
2013-09-01 19:16:00,74.5,68.3,29.71,NW,315,0.0,0.0,81,0.00,,,0.00,WeatherDisplay:10.37,2013-09-01 23:16:00,
2013-09-01 19:21:00,74.3,68.1,29.71,NW,315,0.0,0.0,81,0.00,,,0.00,WeatherDisplay:10.37,2013-09-01 23:21:00,
2013-09-01 19:26:00,74.1,67.9,29.71,NW,315,0.0,0.0,81,0.00,,,0.00,WeatherDisplay:10.37,2013-09-01 23:26:00,
2013-09-01 19:31:00,73.9,67.7,29.72,NW,315,0.0,0.0,81,0.00,,,0.00,WeatherDisplay:10.37,2013-09-01 23:31:00,
2013-09-01 19:36:00,73.6,67.4,29.72,NW,315,0.0,0.0,81,0.00,,,0.00,WeatherDisplay:10.37,2013-09-01 23:36:00,
2013-09-01 19:41:00,73.2,67.4,29.71,NW,315,0.0,0.0,82,0.00,,,0.00,WeatherDisplay:10.37,2013-09-01 23:41:00,
2013-09-01 19:46:00,73.0,66.9,29.71,NW,315,0.0,0.0,81,0.00,,,0.00,WeatherDisplay:10.37,2013-09-01 23:46:00,
2013-09-01 19:51:00,72.5,66.3,29.71,NW,315,0.0,0.0,81,0.00,,,0.00,WeatherDisplay:10.37,2013-09-01 23:51:00,
2013-09-01 19:56:00,72.3,66.2,29.71,NW,315,0.0,0.0,81,0.00,,,0.00,WeatherDisplay:10.37,2013-09-01 23:56:00,
2013-09-01 20:01:00,72.1,66.0,29.72,NW,315,0.0,0.0,81,0.00,,,0.00,WeatherDisplay:10.37,2013-09-02 00:01:00,
2013-09-01 20:06:00,71.8,66.0,29.72,NW,315,0.0,0.0,82,0.00,,,0.00,WeatherDisplay:10.37,2013-09-02 00:06:00,
2013-09-01 20:11:00,71.8,66.0,29.72,NW,315,0.0,0.0,82,0.00,,,0.00,WeatherDisplay:10.37,2013-09-02 00:11:00,
2013-09-01 20:16:00,71.6,66.2,29.72,West,270,0.0,0.0,83,0.00,,,0.00,WeatherDisplay:10.37,2013-09-02 00:16:00,
2013-09-01 20:21:00,71.6,66.2,29.72,NNE,22,0.0,0.0,83,0.00,,,0.00,WeatherDisplay:10.37,2013-09-02 00:21:00,
2013-09-01 20:26:00,71.4,66.0,29.72,North,0,0.0,0.0,83,0.07,RA,,0.07,WeatherDisplay:10.37,2013-09-02 00:26:00,
2013-09-01 20:31:00,70.9,65.5,29.72,North,0,0.0,0.0,83,0.07,RA,,0.07,WeatherDisplay:10.37,2013-09-02 00:31:00,
2013-09-01 20:36:00,70.3,64.9,29.72,SSE,158,0.0,0.0,83,0.07,,,0.07,WeatherDisplay:10.37,2013-09-02 00:36:00,
2013-09-01 20:41:00,70.0,64.9,29.72,NNE,22,0.0,0.0,84,0.07,,,0.07,WeatherDisplay:10.37,2013-09-02 00:41:00,
2013-09-01 20:46:00,69.6,64.6,29.72,NE,45,0.0,0.0,84,0.07,,,0.07,WeatherDisplay:10.37,2013-09-02 00:46:00,
2013-09-01 20:51:00,69.6,64.6,29.72,North,0,0.0,0.0,84,0.07,,,0.07,WeatherDisplay:10.37,2013-09-02 00:51:00,
2013-09-01 20:56:00,69.6,64.9,29.72,NE,45,0.0,0.0,85,0.07,,,0.07,WeatherDisplay:10.37,2013-09-02 00:56:00,
2013-09-01 21:01:00,69.6,64.9,29.72,NNE,22,0.0,0.0,85,0.07,,,0.07,WeatherDisplay:10.37,2013-09-02 01:01:00,
2013-09-01 21:06:00,69.6,64.9,29.73,NNE,22,0.0,0.0,85,0.07,,,0.07,WeatherDisplay:10.37,2013-09-02 01:06:00,
2013-09-01 21:11:00,69.4,65.1,29.73,NE,45,0.0,0.0,86,0.07,,,0.07,WeatherDisplay:10.37,2013-09-02 01:11:00,
2013-09-01 21:16:00,69.4,65.1,29.73,ENE,68,0.0,0.0,86,0.07,,,0.07,WeatherDisplay:10.37,2013-09-02 01:16:00,
2013-09-01 21:21:00,69.3,64.9,29.73,ENE,68,0.0,0.0,86,0.07,,,0.07,WeatherDisplay:10.37,2013-09-02 01:21:00,
2013-09-01 21:26:00,69.1,64.7,29.74,ENE,68,0.0,0.0,86,0.00,,,0.07,WeatherDisplay:10.37,2013-09-02 01:26:00,
2013-09-01 21:31:00,68.9,64.9,29.73,ENE,68,0.0,0.0,87,0.00,,,0.07,WeatherDisplay:10.37,2013-09-02 01:31:00,
2013-09-01 21:36:00,68.7,64.7,29.74,ENE,68,0.0,0.0,87,0.00,,,0.07,WeatherDisplay:10.37,2013-09-02 01:36:00,
2013-09-01 21:41:00,68.5,64.8,29.74,ENE,68,0.0,0.0,88,0.00,,,0.07,WeatherDisplay:10.37,2013-09-02 01:41:00,
2013-09-01 21:46:00,68.4,64.7,29.74,ENE,68,0.0,0.0,88,0.00,,,0.07,WeatherDisplay:10.37,2013-09-02 01:46:00,
2013-09-01 21:51:00,68.2,64.5,29.74,ENE,68,0.0,0.0,88,0.00,,,0.07,WeatherDisplay:10.37,2013-09-02 01:51:00,
2013-09-01 21:56:00,68.2,64.5,29.74,ENE,68,0.0,0.0,88,0.00,,,0.07,WeatherDisplay:10.37,2013-09-02 01:56:00,
2013-09-01 22:01:00,68.2,64.5,29.75,ENE,68,0.0,0.0,88,0.00,,,0.07,WeatherDisplay:10.37,2013-09-02 02:01:00,
2013-09-01 22:06:00,68.0,64.6,29.75,ENE,68,0.0,0.0,89,0.00,,,0.07,WeatherDisplay:10.37,2013-09-02 02:06:00,
2013-09-01 22:11:00,67.8,64.1,29.75,NE,45,0.0,0.0,88,0.00,,,0.07,WeatherDisplay:10.37,2013-09-02 02:11:00,
2013-09-01 22:16:00,67.8,64.5,29.75,NE,45,0.0,0.0,89,0.00,,,0.07,WeatherDisplay:10.37,2013-09-02 02:16:00,
2013-09-01 22:21:00,67.8,64.5,29.75,NE,45,0.0,0.0,89,0.00,,,0.07,WeatherDisplay:10.37,2013-09-02 02:21:00,
2013-09-01 22:26:00,67.8,64.5,29.75,NE,45,0.0,0.0,89,0.00,,,0.07,WeatherDisplay:10.37,2013-09-02 02:26:00,
2013-09-01 22:31:00,67.8,64.5,29.75,NE,45,0.0,0.0,89,0.00,,,0.07,WeatherDisplay:10.37,2013-09-02 02:31:00,
2013-09-01 22:36:00,67.8,64.5,29.75,NE,45,0.0,0.0,89,0.00,,,0.07,WeatherDisplay:10.37,2013-09-02 02:36:00,
2013-09-01 22:41:00,67.6,64.6,29.75,NE,45,0.0,0.0,90,0.00,,,0.07,WeatherDisplay:10.37,2013-09-02 02:41:00,
2013-09-01 22:46:00,67.6,64.6,29.75,NE,45,0.0,0.0,90,0.00,,,0.07,WeatherDisplay:10.37,2013-09-02 02:46:00,
2013-09-01 22:51:00,67.6,64.6,29.75,NE,45,0.0,0.0,90,0.00,,,0.07,WeatherDisplay:10.37,2013-09-02 02:51:00,
2013-09-01 22:56:00,67.6,64.6,29.75,NE,45,0.0,0.0,90,0.00,,,0.07,WeatherDisplay:10.37,2013-09-02 02:56:00,
2013-09-01 23:01:00,67.5,64.4,29.75,NE,45,0.0,0.0,90,0.00,,,0.07,WeatherDisplay:10.37,2013-09-02 03:01:00,
2013-09-01 23:06:00,67.3,64.2,29.75,NE,45,0.0,0.0,90,0.00,,,0.07,WeatherDisplay:10.37,2013-09-02 03:06:00,
2013-09-01 23:11:00,67.3,64.2,29.75,NE,45,0.0,0.0,90,0.00,,,0.07,WeatherDisplay:10.37,2013-09-02 03:11:00,
2013-09-01 23:16:00,67.3,64.2,29.75,NE,45,0.0,0.0,90,0.00,,,0.07,WeatherDisplay:10.37,2013-09-02 03:16:00,
2013-09-01 23:21:00,67.3,64.2,29.75,NE,45,0.0,0.0,90,0.00,,,0.07,WeatherDisplay:10.37,2013-09-02 03:21:00,
2013-09-01 23:26:00,67.3,64.2,29.75,NE,45,0.0,0.0,90,0.00,,,0.07,WeatherDisplay:10.37,2013-09-02 03:26:00,
2013-09-01 23:31:00,67.3,64.6,29.75,NE,45,0.0,0.0,91,0.00,,,0.07,WeatherDisplay:10.37,2013-09-02 03:31:00,
2013-09-01 23:36:00,67.3,64.6,29.74,NE,45,0.0,0.0,91,0.00,,,0.07,WeatherDisplay:10.37,2013-09-02 03:36:00,
2013-09-01 23:41:00,67.3,64.6,29.74,NE,45,0.0,0.0,91,0.00,,,0.07,WeatherDisplay:10.37,2013-09-02 03:41:00,
2013-09-01 23:46:00,67.3,64.6,29.74,NE,45,0.0,0.0,91,0.00,,,0.07,WeatherDisplay:10.37,2013-09-02 03:46:00,
2013-09-01 23:51:00,67.3,64.6,29.75,NE,45,0.0,0.0,91,0.00,,,0.07,WeatherDisplay:10.37,2013-09-02 03:51:00,
2013-09-01 23:56:00,67.3,64.6,29.74,NE,45,0.0,0.0,91,0.00,,,0.07,WeatherDisplay:10.37,2013-09-02 03:56:00,